createdAt,value
2018-06-12T00:00:13.938Z,15.64
2018-06-12T00:01:13.914Z,15.56
2018-06-12T00:02:13.902Z,15.53
2018-06-12T00:03:13.869Z,15.51
2018-06-12T00:04:13.840Z,15.44
2018-06-12T00:05:13.817Z,15.59
2018-06-12T00:06:13.943Z,15.60
2018-06-12T00:07:13.768Z,15.59
2018-06-12T00:08:13.754Z,15.53
2018-06-12T00:09:13.719Z,15.56
2018-06-12T00:10:13.695Z,15.48
2018-06-12T00:11:13.670Z,15.51
2018-06-12T00:12:13.646Z,15.49
2018-06-12T00:13:13.622Z,15.52
2018-06-12T00:14:13.598Z,15.51
2018-06-12T00:15:13.574Z,15.56
2018-06-12T00:16:13.549Z,15.53
2018-06-12T00:17:13.524Z,15.52
2018-06-12T00:18:14.252Z,15.49
2018-06-12T00:19:13.475Z,15.53
2018-06-12T00:20:13.451Z,15.37
2018-06-12T00:21:13.427Z,15.55
2018-06-12T00:22:13.407Z,15.55
2018-06-12T00:23:13.377Z,15.59
2018-06-12T00:24:13.354Z,15.55
2018-06-12T00:25:13.328Z,15.58
2018-06-12T00:26:13.307Z,15.58
2018-06-12T00:27:13.288Z,15.59
2018-06-12T00:28:13.259Z,15.64
2018-06-12T00:29:13.232Z,15.56
2018-06-12T00:30:13.208Z,15.59
2018-06-12T00:31:13.181Z,15.40
2018-06-12T00:32:13.159Z,15.49
2018-06-12T00:33:13.141Z,15.30
2018-06-12T00:34:13.111Z,15.33
2018-06-12T00:35:13.093Z,15.38
2018-06-12T00:36:13.261Z,15.34
2018-06-12T00:37:13.037Z,15.40
2018-06-12T00:38:13.018Z,15.35
2018-06-12T00:39:12.989Z,15.34
2018-06-12T00:40:12.963Z,15.33
2018-06-12T00:41:12.947Z,15.34
2018-06-12T00:42:12.918Z,15.41
2018-06-12T00:43:12.891Z,15.30
2018-06-12T00:44:12.864Z,15.31
2018-06-12T00:45:12.853Z,15.34
2018-06-12T00:46:12.819Z,15.35
2018-06-12T00:47:12.790Z,15.35
2018-06-12T00:48:12.768Z,15.37
2018-06-12T00:49:12.743Z,15.34
2018-06-12T00:50:12.723Z,15.33
2018-06-12T00:51:12.694Z,15.35
2018-06-12T00:52:12.673Z,15.49
2018-06-12T00:53:12.656Z,15.48
2018-06-12T00:54:12.619Z,15.41
2018-06-12T00:55:12.597Z,15.38
2018-06-12T00:56:12.571Z,15.40
2018-06-12T00:57:12.558Z,15.43
2018-06-12T00:58:12.524Z,15.48
2018-06-12T00:59:12.498Z,15.34
2018-06-12T01:00:12.473Z,15.34
2018-06-12T01:01:12.449Z,15.43
2018-06-12T01:02:12.424Z,15.44
2018-06-12T01:03:12.398Z,15.43
2018-06-12T01:04:12.374Z,15.44
2018-06-12T01:05:12.352Z,15.48
2018-06-12T01:06:12.326Z,15.41
2018-06-12T01:07:12.300Z,15.33
2018-06-12T01:08:12.279Z,15.37
2018-06-12T01:09:12.253Z,15.40
2018-06-12T01:10:12.228Z,15.46
2018-06-12T01:11:12.203Z,15.37
2018-06-12T01:12:12.180Z,15.40
2018-06-12T01:13:12.158Z,15.31
2018-06-12T01:14:12.132Z,15.33
2018-06-12T01:15:12.107Z,15.30
2018-06-12T01:16:12.083Z,15.30
2018-06-12T01:17:12.907Z,15.33
2018-06-12T01:18:12.040Z,15.34
2018-06-12T01:19:12.005Z,15.37
2018-06-12T01:20:11.982Z,15.34
2018-06-12T01:21:11.965Z,15.30
2018-06-12T01:22:11.935Z,15.41
2018-06-12T01:23:11.909Z,15.53
2018-06-12T01:24:11.883Z,15.51
2018-06-12T01:25:11.866Z,15.52
2018-06-12T01:26:11.835Z,15.48
2018-06-12T01:27:11.810Z,15.48
2018-06-12T01:28:54.138Z,15.46
2018-06-12T01:29:53.912Z,15.33
2018-06-12T01:30:53.887Z,15.34
2018-06-12T01:31:54.068Z,15.37
2018-06-12T01:32:54.042Z,15.41
2018-06-12T01:33:53.814Z,15.44
2018-06-12T01:34:53.789Z,15.49
2018-06-12T01:35:53.765Z,15.44
2018-06-12T01:36:53.741Z,15.44
2018-06-12T01:37:53.716Z,15.48
2018-06-12T01:38:53.690Z,15.31
2018-06-12T01:39:53.671Z,15.38
2018-06-12T01:40:53.651Z,15.35
2018-06-12T01:41:53.617Z,15.34
2018-06-12T01:42:53.595Z,15.41
2018-06-12T01:43:53.568Z,15.41
2018-06-12T01:44:53.545Z,15.43
2018-06-12T01:45:53.520Z,15.43
2018-06-12T01:46:53.496Z,15.49
2018-06-12T01:47:53.471Z,15.46
2018-06-12T01:48:53.446Z,15.46
2018-06-12T01:49:53.423Z,15.52
2018-06-12T01:50:53.600Z,15.46
2018-06-12T01:51:53.373Z,15.41
2018-06-12T01:52:53.351Z,15.31
2018-06-12T01:53:53.329Z,15.37
2018-06-12T01:54:53.300Z,15.43
2018-06-12T01:55:53.282Z,15.43
2018-06-12T01:56:53.250Z,15.30
2018-06-12T01:57:53.225Z,15.41
2018-06-12T01:58:53.200Z,15.49
2018-06-12T01:59:53.176Z,15.53
2018-06-12T02:00:53.162Z,15.58
2018-06-12T02:01:53.130Z,15.53
2018-06-12T02:02:53.101Z,15.44
2018-06-12T02:03:53.078Z,15.46
2018-06-12T02:04:53.054Z,15.49
2018-06-12T02:05:53.028Z,15.52
2018-06-12T02:06:53.004Z,15.52
2018-06-12T02:07:52.979Z,15.51
2018-06-12T02:08:53.156Z,15.51
2018-06-12T02:09:52.931Z,15.51
2018-06-12T02:10:52.906Z,15.44
2018-06-12T02:11:52.882Z,15.38
2018-06-12T02:12:52.857Z,15.43
2018-06-12T02:13:52.832Z,15.51
2018-06-12T02:14:52.813Z,15.48
2018-06-12T02:15:52.783Z,15.51
2018-06-12T02:16:52.760Z,15.52
2018-06-12T02:17:52.955Z,15.43
2018-06-12T02:18:52.710Z,15.46
2018-06-12T02:19:52.698Z,15.37
2018-06-12T02:20:52.662Z,15.41
2018-06-12T02:21:52.838Z,15.48
2018-06-12T02:22:52.616Z,15.48
2018-06-12T02:23:52.589Z,15.48
2018-06-12T02:24:52.565Z,15.48
2018-06-12T02:25:52.538Z,15.48
2018-06-12T02:26:52.714Z,15.52
2018-06-12T02:27:52.489Z,15.43
2018-06-12T02:28:52.466Z,15.49
2018-06-12T02:29:52.440Z,15.49
2018-06-12T02:30:52.418Z,15.53
2018-06-12T02:31:52.397Z,15.49
2018-06-12T02:32:52.371Z,15.43
2018-06-12T02:33:52.341Z,15.56
2018-06-12T02:34:52.318Z,15.56
2018-06-12T02:35:52.294Z,15.51
2018-06-12T02:36:52.268Z,15.34
2018-06-12T02:37:52.243Z,15.31
2018-06-12T02:38:52.221Z,15.46
2018-06-12T02:39:52.197Z,15.43
2018-06-12T02:40:52.172Z,15.37
2018-06-12T02:41:52.145Z,15.35
2018-06-12T02:42:52.123Z,15.23
2018-06-12T02:43:52.096Z,15.34
2018-06-12T02:44:52.072Z,15.31
2018-06-12T02:45:52.049Z,15.31
2018-06-12T02:46:52.022Z,15.19
2018-06-12T02:47:52.010Z,15.35
2018-06-12T02:48:51.973Z,15.30
2018-06-12T02:49:51.949Z,15.20
2018-06-12T02:50:51.934Z,15.23
2018-06-12T02:51:51.899Z,15.20
2018-06-12T02:52:51.876Z,15.23
2018-06-12T02:53:51.851Z,15.23
2018-06-12T02:54:51.832Z,15.22
2018-06-12T02:55:51.802Z,15.27
2018-06-12T02:56:51.782Z,15.30
2018-06-12T02:57:51.753Z,15.40
2018-06-12T02:58:51.729Z,15.35
2018-06-12T02:59:51.703Z,15.35
2018-06-12T03:00:51.679Z,15.31
2018-06-12T03:01:51.656Z,15.35
2018-06-12T03:02:51.629Z,15.22
2018-06-12T03:03:51.607Z,15.23
2018-06-12T03:04:51.594Z,15.25
2018-06-12T03:05:51.557Z,15.20
2018-06-12T03:06:51.536Z,15.31
2018-06-12T03:07:51.508Z,15.25
2018-06-12T03:08:51.482Z,15.20
2018-06-12T03:09:51.459Z,15.30
2018-06-12T03:10:51.438Z,15.23
2018-06-12T03:11:51.408Z,15.28
2018-06-12T03:12:51.383Z,15.37
2018-06-12T03:13:51.359Z,15.40
2018-06-12T03:14:51.338Z,15.37
2018-06-12T03:15:51.309Z,15.22
2018-06-12T03:16:51.288Z,15.25
2018-06-12T03:17:51.261Z,15.23
2018-06-12T03:18:51.239Z,15.28
2018-06-12T03:19:51.213Z,15.34
2018-06-12T03:20:51.192Z,15.33
2018-06-12T03:21:51.162Z,15.28
2018-06-12T03:22:51.138Z,15.16
2018-06-12T03:23:51.113Z,15.20
2018-06-12T03:24:51.088Z,15.28
2018-06-12T03:25:51.064Z,15.25
2018-06-12T03:26:51.039Z,15.34
2018-06-12T03:27:51.015Z,15.31
2018-06-12T03:28:50.988Z,15.38
2018-06-12T03:29:50.964Z,15.34
2018-06-12T03:30:50.943Z,15.33
2018-06-12T03:31:50.921Z,15.28
2018-06-12T03:32:50.892Z,15.34
2018-06-12T03:33:50.868Z,15.27
2018-06-12T03:34:50.849Z,15.40
2018-06-12T03:35:50.818Z,15.34
2018-06-12T03:36:50.794Z,15.35
2018-06-12T03:37:50.768Z,15.37
2018-06-12T03:38:50.782Z,15.37
2018-06-12T03:39:50.720Z,15.41
2018-06-12T03:40:50.698Z,15.44
2018-06-12T03:41:50.675Z,15.40
2018-06-12T03:42:50.646Z,15.41
2018-06-12T03:43:50.623Z,15.34
2018-06-12T03:44:50.598Z,15.38
2018-06-12T03:45:50.573Z,15.33
2018-06-12T03:46:50.548Z,15.48
2018-06-12T03:47:50.525Z,15.51
2018-06-12T03:48:50.498Z,15.51
2018-06-12T03:49:50.479Z,15.48
2018-06-12T03:50:50.452Z,15.44
2018-06-12T03:51:50.438Z,15.48
2018-06-12T03:52:50.402Z,15.56
2018-06-12T03:53:50.377Z,15.49
2018-06-12T03:54:50.353Z,15.53
2018-06-12T03:55:50.328Z,15.58
2018-06-12T03:56:50.303Z,15.59
2018-06-12T03:57:50.284Z,15.59
2018-06-12T03:58:50.255Z,15.43
2018-06-12T03:59:50.230Z,15.53
2018-06-12T04:00:50.209Z,15.52
2018-06-12T04:01:50.182Z,15.55
2018-06-12T04:02:50.158Z,15.58
2018-06-12T04:03:50.133Z,15.59
2018-06-12T04:04:50.110Z,15.66
2018-06-12T04:05:50.084Z,15.56
2018-06-12T04:06:50.064Z,15.55
2018-06-12T04:07:50.036Z,15.43
2018-06-12T04:08:50.012Z,15.41
2018-06-12T04:09:49.986Z,15.53
2018-06-12T04:10:49.962Z,15.55
2018-06-12T04:11:49.938Z,15.56
2018-06-12T04:12:49.914Z,15.55
2018-06-12T04:13:49.889Z,15.60
2018-06-12T04:14:49.939Z,15.55
2018-06-12T04:15:49.841Z,15.51
2018-06-12T04:16:49.817Z,15.59
2018-06-12T04:17:49.804Z,15.64
2018-06-12T04:18:49.769Z,15.62
2018-06-12T04:19:49.744Z,15.68
2018-06-12T04:20:49.719Z,15.60
2018-06-12T04:21:49.703Z,15.60
2018-06-12T04:22:49.677Z,15.58
2018-06-12T04:23:49.646Z,15.58
2018-06-12T04:24:49.622Z,15.56
2018-06-12T04:25:49.597Z,15.55
2018-06-12T04:26:49.573Z,15.56
2018-06-12T04:27:49.550Z,15.48
2018-06-12T04:28:49.525Z,15.41
2018-06-12T04:29:49.500Z,15.48
2018-06-12T04:30:49.479Z,15.56
2018-06-12T04:31:49.452Z,15.56
2018-06-12T04:32:49.428Z,15.53
2018-06-12T04:33:49.403Z,15.55
2018-06-12T04:34:49.379Z,15.62
2018-06-12T04:35:49.355Z,15.67
2018-06-12T04:36:49.331Z,15.55
2018-06-12T04:37:49.305Z,15.66
2018-06-12T04:38:49.287Z,15.76
2018-06-12T04:39:49.258Z,15.73
2018-06-12T04:40:49.243Z,15.76
2018-06-12T04:41:49.210Z,15.80
2018-06-12T04:42:49.185Z,15.74
2018-06-12T04:43:49.161Z,15.74
2018-06-12T04:44:49.138Z,15.77
2018-06-12T04:45:49.113Z,15.73
2018-06-12T04:46:49.093Z,15.80
2018-06-12T04:47:49.065Z,15.76
2018-06-12T04:48:49.042Z,15.76
2018-06-12T04:49:49.021Z,15.77
2018-06-12T04:50:48.993Z,15.77
2018-06-12T04:51:48.970Z,15.78
2018-06-12T04:52:48.949Z,15.77
2018-06-12T04:53:48.921Z,15.76
2018-06-12T04:54:48.896Z,15.85
2018-06-12T04:55:48.875Z,15.92
2018-06-12T04:56:48.850Z,15.85
2018-06-12T04:57:48.825Z,15.95
2018-06-12T04:58:49.012Z,15.92
2018-06-12T04:59:48.778Z,15.81
2018-06-12T05:00:48.754Z,15.81
2018-06-12T05:01:48.730Z,15.80
2018-06-12T05:02:48.707Z,15.74
2018-06-12T05:03:48.684Z,15.81
2018-06-12T05:04:48.667Z,15.71
2018-06-12T05:05:48.634Z,15.78
2018-06-12T05:06:48.611Z,15.85
2018-06-12T05:07:48.587Z,15.95
2018-06-12T05:08:48.568Z,16.03
2018-06-12T05:09:48.539Z,16.01
2018-06-12T05:10:48.549Z,16.01
2018-06-12T05:11:48.493Z,16.01
2018-06-12T05:12:48.468Z,16.01
2018-06-12T05:13:48.445Z,15.98
2018-06-12T05:14:48.623Z,16.04
2018-06-12T05:15:48.396Z,15.92
2018-06-12T05:16:48.373Z,16.03
2018-06-12T05:17:48.350Z,16.01
2018-06-12T05:18:48.326Z,16.03
2018-06-12T05:19:48.511Z,16.01
2018-06-12T05:20:48.481Z,16.03
2018-06-12T05:21:48.255Z,16.10
2018-06-12T05:22:48.233Z,16.14
2018-06-12T05:23:48.210Z,16.03
2018-06-12T05:24:48.387Z,15.98
2018-06-12T05:25:48.162Z,16.13
2018-06-12T05:26:48.339Z,16.14
2018-06-12T05:27:48.115Z,16.30
2018-06-12T05:28:48.091Z,16.25
2018-06-12T05:29:48.067Z,16.10
2018-06-12T05:30:48.044Z,15.88
2018-06-12T05:31:48.021Z,16.01
2018-06-12T05:32:47.998Z,15.98
2018-06-12T05:33:47.974Z,16.06
2018-06-12T05:34:47.951Z,16.18
2018-06-12T05:35:47.928Z,16.11
2018-06-12T05:36:47.905Z,16.07
2018-06-12T05:37:47.887Z,16.11
2018-06-12T05:38:47.859Z,16.14
2018-06-12T05:39:47.835Z,15.98
2018-06-12T05:40:47.813Z,15.93
2018-06-12T05:41:47.789Z,16.03
2018-06-12T05:42:47.766Z,16.16
2018-06-12T05:43:47.749Z,16.29
2018-06-12T05:44:47.722Z,16.13
2018-06-12T05:45:47.698Z,16.16
2018-06-12T05:46:47.729Z,16.06
2018-06-12T05:47:47.652Z,16.13
2018-06-12T05:48:47.629Z,16.13
2018-06-12T05:49:47.809Z,16.33
2018-06-12T05:50:47.589Z,16.36
2018-06-12T05:51:47.763Z,16.30
2018-06-12T05:52:47.538Z,16.22
2018-06-12T05:53:47.515Z,16.18
2018-06-12T05:54:47.492Z,16.32
2018-06-12T05:55:47.523Z,16.16
2018-06-12T05:56:47.448Z,16.06
2018-06-12T05:57:47.428Z,16.06
2018-06-12T05:58:47.404Z,15.89
2018-06-12T05:59:47.379Z,16.08
2018-06-12T06:00:47.357Z,16.29
2018-06-12T06:01:47.535Z,16.40
2018-06-12T06:02:47.516Z,16.44
2018-06-12T06:03:47.490Z,16.52
2018-06-12T06:04:47.267Z,16.45
2018-06-12T06:05:47.444Z,16.54
2018-06-12T06:06:47.422Z,16.52
2018-06-12T06:07:47.401Z,16.96
2018-06-12T06:08:47.984Z,16.87
2018-06-12T06:09:47.152Z,16.85
2018-06-12T06:10:47.130Z,16.72
2018-06-12T06:11:47.115Z,16.70
2018-06-12T06:12:47.089Z,16.85
2018-06-12T06:13:47.064Z,16.85
2018-06-12T06:14:47.246Z,16.73
2018-06-12T06:15:47.020Z,16.84
2018-06-12T06:16:46.997Z,16.99
2018-06-12T06:17:47.185Z,17.35
2018-06-12T06:18:46.960Z,17.42
2018-06-12T06:19:46.933Z,17.42
2018-06-12T06:20:46.911Z,17.33
2018-06-12T06:21:46.893Z,17.18
2018-06-12T06:22:46.875Z,16.65
2018-06-12T06:23:46.850Z,16.75
2018-06-12T06:24:46.823Z,16.40
2018-06-12T06:25:46.801Z,16.66
2018-06-12T06:26:46.782Z,16.82
2018-06-12T06:27:46.758Z,17.09
2018-06-12T06:28:46.739Z,17.28
2018-06-12T06:29:46.767Z,17.18
2018-06-12T06:30:46.695Z,17.20
2018-06-12T06:31:46.684Z,16.87
2018-06-12T06:32:46.656Z,16.99
2018-06-12T06:33:46.631Z,16.69
2018-06-12T06:34:46.608Z,16.59
2018-06-12T06:35:46.588Z,16.50
2018-06-12T06:36:46.781Z,16.40
2018-06-12T06:37:46.544Z,16.59
2018-06-12T06:38:46.527Z,16.67
2018-06-12T06:39:46.501Z,16.30
2018-06-12T06:40:46.480Z,16.37
2018-06-12T06:41:46.461Z,16.48
2018-06-12T06:42:46.436Z,16.65
2018-06-12T06:43:46.414Z,16.54
2018-06-12T06:44:46.393Z,16.52
2018-06-12T06:45:46.385Z,16.42
2018-06-12T06:46:46.349Z,16.27
2018-06-12T06:47:46.329Z,16.26
2018-06-12T06:48:46.309Z,16.29
2018-06-12T06:49:46.314Z,16.33
2018-06-12T06:50:46.262Z,16.32
2018-06-12T06:51:46.242Z,16.32
2018-06-12T06:52:46.220Z,16.48
2018-06-12T06:53:46.200Z,16.66
2018-06-12T06:54:46.175Z,16.69
2018-06-12T06:55:46.152Z,16.72
2018-06-12T06:56:46.134Z,16.57
2018-06-12T06:57:46.110Z,16.32
2018-06-12T06:58:46.101Z,16.44
2018-06-12T06:59:46.065Z,16.42
2018-06-12T07:00:46.046Z,16.60
2018-06-12T07:01:46.021Z,16.65
2018-06-12T07:02:45.999Z,16.44
2018-06-12T07:03:46.179Z,16.55
2018-06-12T07:04:45.955Z,16.59
2018-06-12T07:05:45.933Z,16.30
2018-06-12T07:06:45.910Z,16.11
2018-06-12T07:07:45.888Z,16.04
2018-06-12T07:08:45.865Z,15.98
2018-06-12T07:09:45.843Z,16.14
2018-06-12T07:10:45.821Z,16.17
2018-06-12T07:11:45.803Z,16.14
2018-06-12T07:12:45.782Z,16.48
2018-06-12T07:13:45.753Z,16.69
2018-06-12T07:14:45.731Z,16.69
2018-06-12T07:15:45.712Z,16.77
2018-06-12T07:16:45.687Z,17.10
2018-06-12T07:17:45.663Z,17.27
2018-06-12T07:18:45.643Z,17.49
2018-06-12T07:19:45.619Z,17.55
2018-06-12T07:20:45.605Z,17.47
2018-06-12T07:21:45.576Z,17.38
2018-06-12T07:22:45.554Z,17.15
2018-06-12T07:23:45.533Z,17.06
2018-06-12T07:24:45.511Z,17.00
2018-06-12T07:25:45.489Z,17.03
2018-06-12T07:26:45.470Z,16.82
2018-06-12T07:27:45.445Z,16.85
2018-06-12T07:28:45.424Z,16.92
2018-06-12T07:29:45.402Z,16.87
2018-06-12T07:30:45.381Z,16.78
2018-06-12T07:31:45.370Z,16.60
2018-06-12T07:32:45.338Z,16.77
2018-06-12T07:33:45.561Z,16.69
2018-06-12T07:34:45.509Z,16.75
2018-06-12T07:35:45.276Z,16.69
2018-06-12T07:36:45.254Z,16.69
2018-06-12T07:37:45.274Z,16.72
2018-06-12T07:38:45.208Z,16.72
2018-06-12T07:39:45.188Z,16.82
2018-06-12T07:40:45.165Z,17.03
2018-06-12T07:41:45.346Z,17.22
2018-06-12T07:42:45.330Z,17.33
2018-06-12T07:43:45.100Z,16.95
2018-06-12T07:44:45.080Z,16.84
2018-06-12T07:45:45.057Z,16.69
2018-06-12T07:46:45.036Z,16.67
2018-06-12T07:47:45.015Z,16.57
2018-06-12T07:48:44.993Z,16.51
2018-06-12T07:49:44.971Z,16.57
2018-06-12T07:50:44.951Z,16.52
2018-06-12T07:51:44.932Z,16.51
2018-06-12T07:52:44.907Z,16.65
2018-06-12T07:53:44.886Z,16.72
2018-06-12T07:54:44.863Z,16.57
2018-06-12T07:55:44.840Z,16.37
2018-06-12T07:56:44.821Z,16.57
2018-06-12T07:57:44.798Z,16.55
2018-06-12T07:58:44.781Z,16.59
2018-06-12T07:59:44.769Z,16.70
2018-06-12T08:00:44.733Z,16.63
2018-06-12T08:01:44.711Z,16.66
2018-06-12T08:02:44.741Z,16.57
2018-06-12T08:03:44.668Z,16.54
2018-06-12T08:04:44.647Z,16.51
2018-06-12T08:05:44.624Z,16.66
2018-06-12T08:06:44.603Z,16.72
2018-06-12T08:07:44.581Z,16.90
2018-06-12T08:08:44.561Z,16.88
2018-06-12T08:09:44.537Z,16.72
2018-06-12T08:10:44.519Z,16.55
2018-06-12T08:11:44.515Z,16.62
2018-06-12T08:12:44.517Z,16.51
2018-06-12T08:13:44.464Z,16.67
2018-06-12T08:14:44.433Z,16.72
2018-06-12T08:15:44.407Z,16.66
2018-06-12T08:16:44.393Z,16.54
2018-06-12T08:17:44.361Z,16.55
2018-06-12T08:18:44.340Z,16.40
2018-06-12T08:19:44.319Z,16.30
2018-06-12T08:20:44.299Z,16.34
2018-06-12T08:21:44.274Z,16.59
2018-06-12T08:22:44.252Z,16.52
2018-06-12T08:23:44.236Z,16.59
2018-06-12T08:24:44.223Z,16.63
2018-06-12T08:25:44.184Z,16.92
2018-06-12T08:26:44.164Z,17.05
2018-06-12T08:27:44.142Z,17.06
2018-06-12T08:28:44.126Z,17.14
2018-06-12T08:29:44.161Z,17.02
2018-06-12T08:30:44.076Z,16.96
2018-06-12T08:31:44.055Z,16.73
2018-06-12T08:32:44.033Z,16.67
2018-06-12T08:33:44.013Z,16.60
2018-06-12T08:34:43.990Z,16.72
2018-06-12T08:35:43.977Z,16.80
2018-06-12T08:36:43.949Z,16.85
2018-06-12T08:37:43.929Z,16.92
2018-06-12T08:38:43.901Z,17.00
2018-06-12T08:39:43.881Z,16.82
2018-06-12T08:40:43.860Z,16.90
2018-06-12T08:41:43.837Z,16.72
2018-06-12T08:42:43.821Z,16.54
2018-06-12T08:43:43.796Z,16.82
2018-06-12T08:44:43.774Z,16.85
2018-06-12T08:45:43.752Z,16.82
2018-06-12T08:46:43.735Z,17.09
2018-06-12T08:47:43.710Z,17.21
2018-06-12T08:48:43.730Z,17.49
2018-06-12T08:49:43.666Z,17.22
2018-06-12T08:50:43.653Z,17.36
2018-06-12T08:51:43.632Z,17.60
2018-06-12T08:52:43.625Z,17.57
2018-06-12T08:53:43.587Z,17.49
2018-06-12T08:54:43.562Z,17.51
2018-06-12T08:55:43.542Z,17.51
2018-06-12T08:56:43.523Z,17.07
2018-06-12T08:57:43.502Z,16.92
2018-06-12T08:58:43.478Z,16.95
2018-06-12T08:59:43.464Z,17.20
2018-06-12T09:00:43.437Z,17.27
2018-06-12T09:01:43.418Z,17.39
2018-06-12T09:02:43.422Z,17.42
2018-06-12T09:03:43.372Z,17.43
2018-06-12T09:04:43.352Z,17.55
2018-06-12T09:05:43.330Z,17.47
2018-06-12T09:06:43.321Z,17.49
2018-06-12T09:07:43.293Z,17.22
2018-06-12T09:08:43.268Z,17.18
2018-06-12T09:09:43.246Z,17.05
2018-06-12T09:10:43.230Z,17.25
2018-06-12T09:11:43.203Z,17.66
2018-06-12T09:12:43.184Z,17.73
2018-06-12T09:13:43.164Z,17.87
2018-06-12T09:14:43.144Z,17.47
2018-06-12T09:15:43.121Z,17.24
2018-06-12T09:16:43.102Z,16.92
2018-06-12T09:17:43.077Z,16.72
2018-06-12T09:18:43.058Z,16.72
2018-06-12T09:19:43.037Z,16.82
2018-06-12T09:20:43.016Z,17.07
2018-06-12T09:21:42.994Z,17.12
2018-06-12T09:22:42.972Z,17.07
2018-06-12T09:23:42.957Z,17.05
2018-06-12T09:24:42.998Z,17.03
2018-06-12T09:25:42.913Z,16.85
2018-06-12T09:26:42.888Z,16.60
2018-06-12T09:27:42.866Z,16.70
2018-06-12T09:28:42.846Z,16.88
2018-06-12T09:29:42.824Z,16.90
2018-06-12T09:30:42.806Z,16.87
2018-06-12T09:31:42.780Z,16.80
2018-06-12T09:32:42.759Z,16.80
2018-06-12T09:33:42.737Z,16.91
2018-06-12T09:34:42.716Z,16.84
2018-06-12T09:35:42.695Z,16.91
2018-06-12T09:36:42.673Z,16.84
2018-06-12T09:37:42.658Z,16.78
2018-06-12T09:38:42.631Z,16.85
2018-06-12T09:39:42.618Z,16.87
2018-06-12T09:40:42.586Z,16.77
2018-06-12T09:41:42.563Z,16.77
2018-06-12T09:42:42.542Z,16.73
2018-06-12T09:43:42.523Z,16.67
2018-06-12T09:44:42.500Z,16.69
2018-06-12T09:45:42.479Z,16.57
2018-06-12T09:46:42.458Z,16.54
2018-06-12T09:47:42.434Z,16.62
2018-06-12T09:48:42.413Z,16.63
2018-06-12T09:49:42.422Z,16.73
2018-06-12T09:50:42.370Z,16.85
2018-06-12T09:51:42.347Z,17.07
2018-06-12T09:52:42.326Z,17.17
2018-06-12T09:53:42.303Z,17.17
2018-06-12T09:54:42.282Z,17.07
2018-06-12T09:55:42.261Z,17.07
2018-06-12T09:56:42.240Z,16.82
2018-06-12T09:57:42.270Z,16.87
2018-06-12T09:58:42.199Z,16.84
2018-06-12T09:59:42.175Z,17.20
2018-06-12T10:00:42.155Z,17.38
2018-06-12T10:01:42.137Z,17.43
2018-06-12T10:02:42.116Z,17.60
2018-06-12T10:03:42.089Z,17.60
2018-06-12T10:04:42.081Z,17.96
2018-06-12T10:05:42.048Z,18.04
2018-06-12T10:06:42.037Z,18.23
2018-06-12T10:07:42.007Z,18.46
2018-06-12T10:08:41.985Z,18.90
2018-06-12T10:09:41.964Z,18.66
2018-06-12T10:10:41.945Z,18.51
2018-06-12T10:11:41.924Z,18.41
2018-06-12T10:12:41.906Z,18.51
2018-06-12T10:13:41.885Z,18.32
2018-06-12T10:14:41.874Z,18.28
2018-06-12T10:15:41.847Z,18.31
2018-06-12T10:16:41.830Z,18.11
2018-06-12T10:17:41.810Z,18.29
2018-06-12T10:18:41.788Z,18.36
2018-06-12T10:19:41.772Z,18.39
2018-06-12T10:20:41.750Z,18.29
2018-06-12T10:21:41.730Z,18.21
2018-06-12T10:22:41.711Z,18.19
2018-06-12T10:23:41.697Z,18.29
2018-06-12T10:24:41.673Z,18.28
2018-06-12T10:25:41.653Z,18.11
2018-06-12T10:26:41.633Z,17.87
2018-06-12T10:27:41.613Z,17.84
2018-06-12T10:28:41.594Z,17.70
2018-06-12T10:29:41.576Z,17.83
2018-06-12T10:30:41.555Z,17.89
2018-06-12T10:31:41.538Z,18.02
2018-06-12T10:32:41.515Z,18.04
2018-06-12T10:33:41.495Z,18.31
2018-06-12T10:34:41.475Z,18.35
2018-06-12T10:35:41.455Z,18.29
2018-06-12T10:36:41.436Z,18.01
2018-06-12T10:37:41.416Z,17.84
2018-06-12T10:38:41.415Z,17.87
2018-06-12T10:39:41.380Z,17.89
2018-06-12T10:40:41.355Z,17.39
2018-06-12T10:41:41.336Z,17.43
2018-06-12T10:42:41.316Z,17.43
2018-06-12T10:43:41.303Z,17.89
2018-06-12T10:44:41.285Z,18.14
2018-06-12T10:45:41.260Z,18.01
2018-06-12T10:46:41.236Z,18.09
2018-06-12T10:47:41.218Z,18.13
2018-06-12T10:48:41.198Z,18.75
2018-06-12T10:49:41.181Z,19.23
2018-06-12T10:50:41.159Z,18.74
2018-06-12T10:51:41.145Z,18.56
2018-06-12T10:52:41.140Z,18.69
2018-06-12T10:53:41.102Z,18.57
2018-06-12T10:54:41.082Z,18.42
2018-06-12T10:55:41.065Z,18.60
2018-06-12T10:56:41.047Z,18.76
2018-06-12T10:57:41.028Z,18.76
2018-06-12T10:58:41.009Z,18.69
2018-06-12T10:59:40.992Z,18.57
2018-06-12T11:00:40.974Z,18.82
2018-06-12T11:01:40.952Z,19.05
2018-06-12T11:02:40.939Z,19.07
2018-06-12T11:03:40.918Z,18.79
2018-06-12T11:04:40.898Z,19.06
2018-06-12T11:05:40.878Z,19.21
2018-06-12T11:06:40.860Z,18.89
2018-06-12T11:07:40.840Z,18.68
2018-06-12T11:08:40.820Z,18.56
2018-06-12T11:09:40.802Z,18.54
2018-06-12T11:10:40.786Z,18.46
2018-06-12T11:11:40.765Z,18.57
2018-06-12T11:12:40.747Z,18.56
2018-06-12T11:13:40.726Z,18.65
2018-06-12T11:14:40.717Z,18.42
2018-06-12T11:15:40.692Z,18.50
2018-06-12T11:16:40.743Z,18.53
2018-06-12T11:17:40.661Z,18.44
2018-06-12T11:18:40.632Z,18.38
2018-06-12T11:19:40.613Z,18.36
2018-06-12T11:20:40.607Z,18.34
2018-06-12T11:21:40.573Z,18.36
2018-06-12T11:22:40.555Z,18.36
2018-06-12T11:23:40.535Z,18.44
2018-06-12T11:24:40.516Z,18.56
2018-06-12T11:25:40.494Z,18.65
2018-06-12T11:26:40.476Z,18.66
2018-06-12T11:27:40.460Z,18.87
2018-06-12T11:28:40.437Z,18.71
2018-06-12T11:29:40.421Z,19.12
2018-06-12T11:30:40.408Z,18.94
2018-06-12T11:31:40.380Z,18.97
2018-06-12T11:32:40.361Z,18.89
2018-06-12T11:33:40.350Z,19.13
2018-06-12T11:34:40.372Z,18.75
2018-06-12T11:35:40.303Z,19.06
2018-06-12T11:36:40.283Z,18.94
2018-06-12T11:37:40.264Z,18.86
2018-06-12T11:38:40.245Z,19.10
2018-06-12T11:39:40.226Z,19.15
2018-06-12T11:40:40.210Z,18.86
2018-06-12T11:41:40.191Z,18.66
2018-06-12T11:42:40.174Z,18.46
2018-06-12T11:43:40.150Z,18.46
2018-06-12T11:44:40.142Z,18.29
2018-06-12T11:45:40.112Z,17.95
2018-06-12T11:46:40.093Z,17.98
2018-06-12T11:47:40.073Z,18.14
2018-06-12T11:48:40.055Z,17.96
2018-06-12T11:49:40.034Z,18.20
2018-06-12T11:50:40.015Z,18.16
2018-06-12T11:51:39.996Z,18.01
2018-06-12T11:52:39.976Z,18.09
2018-06-12T11:53:39.955Z,18.02
2018-06-12T11:54:39.935Z,18.09
2018-06-12T11:55:39.919Z,18.21
2018-06-12T11:56:39.896Z,18.16
2018-06-12T11:57:39.877Z,18.31
2018-06-12T11:58:39.860Z,18.46
2018-06-12T11:59:39.838Z,18.76
2018-06-12T12:00:39.816Z,18.57
2018-06-12T12:01:39.825Z,18.51
2018-06-12T12:02:39.781Z,18.83
2018-06-12T12:03:39.758Z,19.23
2018-06-12T12:04:39.740Z,19.34
2018-06-12T12:05:39.716Z,19.30
2018-06-12T12:06:39.699Z,18.79
2018-06-12T12:07:39.680Z,18.65
2018-06-12T12:08:39.672Z,18.82
2018-06-12T12:09:39.640Z,19.16
2018-06-12T12:10:39.652Z,19.12
2018-06-12T12:11:39.603Z,18.66
2018-06-12T12:12:39.584Z,18.59
2018-06-12T12:13:39.565Z,18.71
2018-06-12T12:14:39.549Z,18.79
2018-06-12T12:15:39.531Z,18.56
2018-06-12T12:16:39.518Z,18.78
2018-06-12T12:17:39.493Z,18.54
2018-06-12T12:18:39.470Z,18.46
2018-06-12T12:19:39.452Z,18.38
2018-06-12T12:20:39.434Z,18.38
2018-06-12T12:21:39.414Z,18.54
2018-06-12T12:22:39.393Z,18.42
2018-06-12T12:23:39.392Z,18.26
2018-06-12T12:24:39.368Z,18.29
2018-06-12T12:25:39.335Z,18.25
2018-06-12T12:26:39.317Z,18.20
2018-06-12T12:27:39.298Z,18.16
2018-06-12T12:28:39.327Z,18.19
2018-06-12T12:29:39.256Z,17.83
2018-06-12T12:30:39.234Z,17.73
2018-06-12T12:31:39.216Z,17.55
2018-06-12T12:32:39.204Z,17.39
2018-06-12T12:33:39.174Z,17.53
2018-06-12T12:34:39.176Z,17.65
2018-06-12T12:35:39.136Z,17.80
2018-06-12T12:36:39.114Z,17.70
2018-06-12T12:37:39.092Z,17.84
2018-06-12T12:38:39.071Z,17.96
2018-06-12T12:39:39.052Z,18.11
2018-06-12T12:40:39.031Z,18.34
2018-06-12T12:41:39.009Z,18.39
2018-06-12T12:42:38.989Z,18.14
2018-06-12T12:43:39.018Z,18.34
2018-06-12T12:44:38.956Z,18.49
2018-06-12T12:45:38.927Z,18.59
2018-06-12T12:46:38.906Z,18.50
2018-06-12T12:47:38.896Z,18.72
2018-06-12T12:48:38.869Z,18.79
2018-06-12T12:49:38.846Z,18.65
2018-06-12T12:50:38.826Z,18.91
2018-06-12T12:51:38.807Z,18.42
2018-06-12T12:52:38.798Z,18.78